Time;durP1;ratioP1;P1;durP2;ratioP2;P2;SDS_P1;SDS_P2;PMS_P1;PMS_P2;Temp;Humidity;BMP_temperature;BMP_pressure;BME280_temperature;BME280_humidity;BME280_pressure;Samples;Min_cycle;Max_cycle;Signal;HPM_P1;HPM_P2
2023/09/10 00:00:03;;;;;;;14.83;11.93;;;21.80;99.90;;;;;;5023053;28;20285;-66
2023/09/10 00:02:31;;;;;;;19.33;12.30;;;21.80;99.90;;;;;;5024600;28;20199;-67
2023/09/10 00:05:00;;;;;;;15.13;12.30;;;21.80;99.90;;;;;;5020223;28;20241;-67
2023/09/10 00:07:30;;;;;;;17.63;11.77;;;21.80;99.90;;;;;;5020156;28;20226;-66
2023/09/10 00:09:58;;;;;;;13.37;11.47;;;21.80;99.90;;;;;;5018287;28;20956;-66
2023/09/10 00:12:26;;;;;;;13.70;11.40;;;21.70;99.90;;;;;;5020599;28;20236;-66
2023/09/10 00:14:55;;;;;;;18.30;12.63;;;21.70;99.90;;;;;;5022037;28;20201;-66
2023/09/10 00:17:23;;;;;;;18.97;12.23;;;21.70;99.90;;;;;;5020799;28;22490;-67
2023/09/10 00:19:51;;;;;;;18.40;12.83;;;21.70;99.90;;;;;;5019846;28;20626;-66
2023/09/10 00:22:20;;;;;;;13.80;12.03;;;21.70;99.90;;;;;;5020173;28;20319;-67
2023/09/10 00:24:49;;;;;;;14.37;12.40;;;21.70;99.90;;;;;;5049760;28;20234;-67
2023/09/10 00:27:17;;;;;;;15.03;11.50;;;21.60;99.90;;;;;;5017787;28;20545;-66
2023/09/10 00:29:46;;;;;;;18.80;11.07;;;21.60;99.90;;;;;;5021438;28;20198;-66
2023/09/10 00:32:14;;;;;;;15.20;10.90;;;21.60;99.90;;;;;;5024365;28;20229;-66
2023/09/10 00:34:43;;;;;;;15.37;11.23;;;21.60;99.90;;;;;;5021943;28;20232;-67
2023/09/10 00:37:12;;;;;;;17.57;11.90;;;21.60;99.90;;;;;;5020123;28;20241;-66
2023/09/10 00:39:41;;;;;;;12.17;10.53;;;21.60;99.90;;;;;;5020941;28;20273;-66
2023/09/10 00:42:13;;;;;;;19.43;11.20;;;21.60;99.90;;;;;;5024625;28;20221;-66
2023/09/10 00:44:41;;;;;;;17.43;11.83;;;21.60;99.90;;;;;;5027332;28;20537;-66
2023/09/10 00:47:10;;;;;;;14.90;10.80;;;21.60;99.90;;;;;;5019816;28;20233;-66
2023/09/10 00:49:38;;;;;;;16.10;11.37;;;21.60;99.90;;;;;;5023805;28;20231;-66
2023/09/10 00:52:07;;;;;;;16.10;11.37;;;21.60;99.90;;;;;;5023012;28;20240;-66
2023/09/10 00:54:36;;;;;;;13.53;10.73;;;21.50;99.90;;;;;;5023279;28;20649;-66
2023/09/10 00:57:05;;;;;;;20.63;10.67;;;21.50;99.90;;;;;;5024406;28;20277;-66
2023/09/10 00:59:35;;;;;;;13.57;10.60;;;21.40;99.90;;;;;;5025234;28;20653;-66
2023/09/10 01:02:04;;;;;;;12.33;10.83;;;21.40;99.90;;;;;;5022743;28;20231;-66
2023/09/10 01:04:33;;;;;;;16.77;10.97;;;21.40;99.90;;;;;;5025777;28;20249;-66
2023/09/10 01:07:02;;;;;;;13.13;10.63;;;21.40;99.90;;;;;;5033318;28;20308;-66
2023/09/10 01:09:31;;;;;;;16.87;11.03;;;21.40;99.90;;;;;;5039093;28;20226;-66
2023/09/10 01:12:06;;;;;;;15.20;10.30;;;21.40;99.90;;;;;;5019293;28;20204;-66
2023/09/10 01:14:41;;;;;;;15.03;11.07;;;21.30;99.90;;;;;;5023806;28;20232;-66
2023/09/10 01:17:14;;;;;;;19.90;11.13;;;21.20;99.90;;;;;;5022959;28;20221;-66
2023/09/10 01:20:11;;;;;;;14.00;10.33;;;21.20;99.90;;;;;;5023789;28;20226;-66
2023/09/10 01:22:46;;;;;;;14.90;10.23;;;21.10;99.90;;;;;;5021994;28;20313;-66
2023/09/10 01:25:17;;;;;;;16.77;10.93;;;21.10;99.90;;;;;;5023748;28;20556;-66
2023/09/10 01:27:47;;;;;;;17.47;11.80;;;21.10;99.90;;;;;;5023159;28;20574;-66
2023/09/10 01:30:16;;;;;;;14.23;10.73;;;21.10;99.90;;;;;;5026809;28;20198;-66
2023/09/10 01:32:48;;;;;;;14.10;11.27;;;21.10;99.90;;;;;;5021630;28;20205;-66
2023/09/10 01:35:21;;;;;;;18.57;11.47;;;21.00;99.90;;;;;;5022678;28;20225;-67
2023/09/10 01:38:03;;;;;;;20.10;11.83;;;21.00;99.90;;;;;;5023548;28;20232;-66
2023/09/10 01:40:35;;;;;;;18.97;10.97;;;20.90;99.90;;;;;;5023226;28;20260;-66
2023/09/10 01:43:06;;;;;;;15.60;11.30;;;20.90;99.90;;;;;;5025319;28;20581;-66
2023/09/10 01:45:36;;;;;;;20.03;11.57;;;20.90;99.90;;;;;;5024588;28;20241;-66
2023/09/10 01:48:06;;;;;;;16.67;11.77;;;20.80;99.90;;;;;;5024995;28;20209;-66
2023/09/10 01:50:35;;;;;;;17.53;11.83;;;20.80;99.90;;;;;;5022688;28;20730;-67
2023/09/10 01:53:03;;;;;;;19.37;12.00;;;20.70;99.90;;;;;;5024358;28;20711;-66
2023/09/10 01:55:33;;;;;;;13.37;11.63;;;20.70;99.90;;;;;;5024248;28;20229;-66
2023/09/10 01:58:02;;;;;;;15.20;12.00;;;20.70;99.90;;;;;;5024484;28;20271;-66
2023/09/10 02:00:30;;;;;;;19.23;12.70;;;20.60;99.90;;;;;;5053954;28;20241;-66
2023/09/10 02:02:58;;;;;;;15.47;11.93;;;20.60;99.90;;;;;;5027229;28;20287;-66
2023/09/10 02:05:27;;;;;;;14.60;11.73;;;20.60;99.90;;;;;;5045390;28;20311;-66
2023/09/10 02:07:55;;;;;;;14.50;11.70;;;20.60;99.90;;;;;;5028180;28;20733;-67
2023/09/10 02:10:24;;;;;;;15.07;11.73;;;20.60;99.90;;;;;;5021189;28;20283;-66
2023/09/10 02:12:54;;;;;;;14.93;11.40;;;20.50;99.90;;;;;;5024167;28;20581;-66
2023/09/10 02:15:22;;;;;;;14.20;12.37;;;20.50;99.90;;;;;;5022713;28;20253;-66
2023/09/10 02:17:50;;;;;;;18.27;12.73;;;20.50;99.90;;;;;;5026177;28;20202;-66
2023/09/10 02:20:19;;;;;;;18.53;12.13;;;20.60;99.90;;;;;;5024285;28;20221;-66
2023/09/10 02:22:47;;;;;;;19.97;12.70;;;20.60;99.90;;;;;;5021298;28;20700;-66
2023/09/10 02:25:16;;;;;;;16.63;11.57;;;20.60;99.90;;;;;;5020858;28;20359;-66
2023/09/10 02:27:44;;;;;;;14.57;11.93;;;20.60;99.90;;;;;;5022684;28;20280;-66
2023/09/10 02:30:14;;;;;;;18.83;12.03;;;20.60;99.90;;;;;;5021265;28;20537;-66
2023/09/10 02:32:42;;;;;;;13.13;11.33;;;20.60;99.90;;;;;;5015505;28;20613;-66
2023/09/10 02:35:11;;;;;;;13.33;11.83;;;20.60;99.90;;;;;;5022274;28;20272;-66
2023/09/10 02:37:40;;;;;;;19.27;11.97;;;20.60;99.90;;;;;;5022713;28;20255;-66
2023/09/10 02:40:10;;;;;;;17.43;11.83;;;20.60;99.90;;;;;;5020262;28;20275;-66
2023/09/10 02:42:39;;;;;;;17.50;11.60;;;20.60;99.90;;;;;;5022524;28;20235;-66
2023/09/10 02:45:08;;;;;;;16.40;11.27;;;20.60;99.90;;;;;;5021072;28;20289;-65
2023/09/10 02:47:38;;;;;;;16.10;12.50;;;20.60;99.90;;;;;;5021328;28;20211;-66
2023/09/10 02:50:07;;;;;;;17.90;11.50;;;20.60;99.90;;;;;;5023618;28;20251;-66
2023/09/10 02:52:36;;;;;;;15.77;11.50;;;20.60;99.90;;;;;;5022244;28;20267;-66
2023/09/10 02:55:05;;;;;;;14.40;11.87;;;20.60;99.90;;;;;;5022606;28;20346;-66
2023/09/10 02:57:33;;;;;;;17.70;12.00;;;20.60;99.90;;;;;;5025402;28;20224;-66
2023/09/10 03:00:04;;;;;;;19.20;11.80;;;20.60;99.90;;;;;;5023639;28;20621;-66
2023/09/10 03:02:33;;;;;;;14.77;11.80;;;20.60;99.90;;;;;;5024446;28;20209;-66
2023/09/10 03:05:03;;;;;;;12.97;11.53;;;20.60;99.90;;;;;;5024648;28;20221;-67
2023/09/10 03:07:33;;;;;;;18.70;11.63;;;20.60;99.90;;;;;;5022025;28;20578;-66
2023/09/10 03:10:02;;;;;;;15.63;11.27;;;20.60;99.90;;;;;;5024449;28;20228;-66
2023/09/10 03:12:30;;;;;;;20.20;12.33;;;20.50;99.90;;;;;;5021343;28;20229;-66
2023/09/10 03:14:59;;;;;;;18.37;11.63;;;20.50;99.90;;;;;;5021502;28;20201;-66
2023/09/10 03:17:27;;;;;;;19.43;10.77;;;20.50;99.90;;;;;;5042695;28;20251;-66
2023/09/10 03:19:55;;;;;;;13.90;11.27;;;20.50;99.90;;;;;;5043169;28;20282;-67
2023/09/10 03:22:25;;;;;;;16.93;11.40;;;20.50;99.90;;;;;;5044144;28;20694;-66
2023/09/10 03:24:54;;;;;;;20.23;11.50;;;20.50;99.90;;;;;;5043542;28;20225;-66
2023/09/10 03:27:22;;;;;;;17.47;10.77;;;20.50;99.90;;;;;;5040393;28;20231;-66
2023/09/10 03:29:51;;;;;;;14.23;10.80;;;20.50;99.90;;;;;;5038275;28;20209;-67
2023/09/10 03:32:19;;;;;;;13.80;10.67;;;20.50;99.90;;;;;;5044324;28;20628;-66
2023/09/10 03:34:48;;;;;;;24.10;11.47;;;20.50;99.90;;;;;;5039441;28;20228;-66
2023/09/10 03:37:16;;;;;;;13.37;10.13;;;20.50;99.90;;;;;;5042380;28;20291;-66
2023/09/10 03:39:46;;;;;;;15.20;10.73;;;20.50;99.90;;;;;;5042231;28;20259;-66
2023/09/10 03:42:16;;;;;;;12.90;10.13;;;20.50;99.90;;;;;;5040868;28;20217;-66
2023/09/10 03:44:44;;;;;;;16.53;11.30;;;20.40;99.90;;;;;;5041408;28;20201;-66
2023/09/10 03:47:13;;;;;;;15.47;10.77;;;20.40;99.90;;;;;;5041126;28;20225;-66
2023/09/10 03:49:41;;;;;;;14.93;10.37;;;20.40;99.90;;;;;;5038132;28;20228;-66
2023/09/10 03:52:17;;;;;;;14.07;10.33;;;20.40;99.90;;;;;;5075155;28;20220;-66
2023/09/10 03:54:47;;;;;;;12.90;9.73;;;20.40;99.90;;;;;;5039012;28;20212;-66
2023/09/10 03:57:16;;;;;;;16.23;10.57;;;20.40;99.90;;;;;;5043855;28;20189;-66
2023/09/10 03:59:44;;;;;;;16.67;11.27;;;20.40;99.90;;;;;;5041969;28;20185;-66
2023/09/10 04:02:13;;;;;;;14.10;11.23;;;20.30;99.90;;;;;;5040510;28;20315;-66
2023/09/10 04:04:42;;;;;;;14.73;11.13;;;20.40;99.90;;;;;;5044762;28;20221;-66
2023/09/10 04:07:10;;;;;;;18.97;11.13;;;20.40;99.90;;;;;;5042763;28;20224;-66
2023/09/10 04:09:39;;;;;;;17.73;11.70;;;20.40;99.90;;;;;;5037388;28;20225;-66
2023/09/10 04:12:08;;;;;;;16.93;10.43;;;20.40;99.90;;;;;;5039495;28;20193;-65
2023/09/10 04:14:37;;;;;;;15.40;10.90;;;20.40;99.90;;;;;;5044226;28;20687;-66
2023/09/10 04:17:05;;;;;;;20.50;12.10;;;20.40;99.90;;;;;;5043194;28;20212;-66
2023/09/10 04:19:33;;;;;;;23.80;11.73;;;20.40;99.90;;;;;;5044431;28;20861;-66
2023/09/10 04:22:02;;;;;;;16.93;10.83;;;20.40;99.90;;;;;;5048159;28;20273;-66
2023/09/10 04:24:31;;;;;;;17.97;10.73;;;20.30;99.90;;;;;;5042554;28;20235;-66
2023/09/10 04:26:59;;;;;;;22.07;11.23;;;20.30;99.90;;;;;;5042526;28;20320;-66
2023/09/10 04:29:29;;;;;;;14.10;11.03;;;20.30;99.90;;;;;;5045897;28;20663;-66
2023/09/10 04:31:57;;;;;;;14.80;10.67;;;20.20;99.90;;;;;;5046653;28;20224;-66
2023/09/10 04:34:26;;;;;;;23.13;11.73;;;20.20;99.90;;;;;;5041775;28;20232;-66
2023/09/10 04:36:54;;;;;;;18.17;10.67;;;20.20;99.90;;;;;;5047415;28;20225;-66
2023/09/10 04:39:22;;;;;;;17.23;10.83;;;20.20;99.90;;;;;;5049300;28;20231;-66
2023/09/10 04:41:51;;;;;;;16.80;10.90;;;20.20;99.90;;;;;;5043380;28;20203;-66
2023/09/10 04:44:20;;;;;;;14.63;10.80;;;20.20;99.90;;;;;;5045932;28;20222;-66
2023/09/10 04:46:49;;;;;;;15.93;10.93;;;20.10;99.90;;;;;;5041692;28;20220;-66
2023/09/10 04:49:18;;;;;;;13.03;10.10;;;20.10;99.90;;;;;;5047543;28;20212;-67
2023/09/10 04:51:46;;;;;;;16.13;11.53;;;20.10;99.90;;;;;;5042899;28;20236;-66
2023/09/10 04:54:14;;;;;;;16.53;11.27;;;20.00;99.90;;;;;;5043739;28;20535;-66
2023/09/10 04:56:43;;;;;;;17.63;10.17;;;20.00;99.90;;;;;;5049762;28;20205;-66
2023/09/10 04:59:11;;;;;;;16.23;9.93;;;20.00;99.90;;;;;;5049111;28;20216;-66
2023/09/10 05:01:40;;;;;;;15.83;10.20;;;20.10;99.90;;;;;;5043106;28;20262;-66
2023/09/10 05:04:09;;;;;;;11.83;9.90;;;20.10;99.90;;;;;;5042733;28;20217;-66
2023/09/10 05:06:38;;;;;;;16.27;9.60;;;20.20;99.90;;;;;;5041824;28;20221;-66
2023/09/10 05:09:08;;;;;;;15.03;10.57;;;20.20;99.90;;;;;;5043484;28;20211;-65
2023/09/10 05:11:36;;;;;;;16.53;10.27;;;20.10;99.90;;;;;;5043072;28;20204;-66
2023/09/10 05:14:04;;;;;;;14.03;9.50;;;20.10;99.90;;;;;;5041609;28;20230;-66
2023/09/10 05:16:33;;;;;;;13.87;9.80;;;20.10;99.90;;;;;;5040694;28;20221;-66
2023/09/10 05:19:01;;;;;;;15.37;9.97;;;20.10;99.90;;;;;;5045748;28;20212;-66
2023/09/10 05:21:31;;;;;;;13.30;9.40;;;20.10;99.90;;;;;;5045808;28;20220;-66
2023/09/10 05:23:59;;;;;;;16.27;9.67;;;20.00;99.90;;;;;;5043948;28;20343;-66
2023/09/10 05:26:27;;;;;;;13.17;9.20;;;20.00;99.90;;;;;;5042668;28;20715;-66
2023/09/10 05:28:58;;;;;;;11.67;9.47;;;20.10;99.90;;;;;;5038519;28;20216;-66
2023/09/10 05:31:27;;;;;;;17.23;10.33;;;20.10;99.90;;;;;;5049094;28;20243;-68
2023/09/10 05:33:55;;;;;;;10.77;9.67;;;20.20;99.90;;;;;;5041816;28;20223;-66
2023/09/10 05:36:23;;;;;;;12.97;9.20;;;20.20;99.90;;;;;;5044609;28;20311;-66
2023/09/10 05:38:53;;;;;;;17.20;9.30;;;20.20;99.90;;;;;;5040934;28;20207;-67
2023/09/10 05:41:21;;;;;;;17.50;9.17;;;20.30;99.90;;;;;;5040594;28;20248;-66
2023/09/10 05:43:50;;;;;;;13.57;9.20;;;20.30;99.90;;;;;;5045517;28;20229;-66
2023/09/10 05:46:18;;;;;;;10.63;9.47;;;20.40;99.90;;;;;;5043607;28;20221;-66
2023/09/10 05:48:46;;;;;;;17.03;9.30;;;20.40;99.90;;;;;;5038750;28;20216;-66
2023/09/10 05:51:15;;;;;;;12.10;8.77;;;20.30;99.90;;;;;;5048221;28;20216;-66
2023/09/10 05:53:44;;;;;;;9.50;8.60;;;20.40;99.90;;;;;;5045780;28;20263;-67
2023/09/10 05:56:14;;;;;;;13.93;9.33;;;20.40;99.90;;;;;;5043771;28;20270;-66
2023/09/10 05:58:43;;;;;;;10.53;8.67;;;20.40;99.90;;;;;;5040723;28;20242;-67
2023/09/10 06:01:11;;;;;;;12.27;9.00;;;20.50;99.90;;;;;;5041863;28;20821;-66
2023/09/10 06:03:40;;;;;;;10.47;8.77;;;20.50;99.90;;;;;;5042997;28;20245;-65
2023/09/10 06:06:08;;;;;;;15.07;8.90;;;20.60;99.90;;;;;;5046555;28;20208;-66
2023/09/10 06:08:36;;;;;;;13.80;8.27;;;20.60;99.90;;;;;;5043122;28;20204;-66
2023/09/10 06:11:05;;;;;;;12.63;8.43;;;20.70;99.90;;;;;;5039720;28;20220;-66
2023/09/10 06:13:35;;;;;;;9.63;7.90;;;20.80;99.90;;;;;;5043867;28;20262;-67
2023/09/10 06:16:03;;;;;;;12.23;7.80;;;20.80;99.90;;;;;;5043716;28;20312;-66
2023/09/10 06:18:31;;;;;;;12.40;8.33;;;20.80;99.90;;;;;;5046493;28;20225;-66
2023/09/10 06:21:00;;;;;;;11.43;7.50;;;20.90;99.90;;;;;;5045110;28;20213;-67
2023/09/10 06:23:28;;;;;;;8.83;7.70;;;20.90;99.90;;;;;;5024085;28;20224;-67
2023/09/10 06:25:56;;;;;;;10.13;8.43;;;21.00;99.90;;;;;;5022951;28;20218;-66
2023/09/10 06:28:25;;;;;;;15.37;9.17;;;21.20;99.90;;;;;;5024979;28;20214;-66
2023/09/10 06:30:55;;;;;;;13.30;8.20;;;21.30;99.90;;;;;;5019091;28;20678;-67
2023/09/10 06:33:23;;;;;;;14.23;8.20;;;21.60;99.90;;;;;;5025197;28;20225;-67
2023/09/10 06:35:52;;;;;;;11.00;7.40;;;21.70;99.90;;;;;;5021952;28;20187;-66
2023/09/10 06:38:21;;;;;;;11.53;7.30;;;21.80;99.90;;;;;;5020889;28;20223;-67
2023/09/10 06:40:51;;;;;;;10.60;7.57;;;21.90;99.90;;;;;;5039176;28;20223;-67
2023/09/10 06:43:19;;;;;;;12.60;7.60;;;22.00;99.90;;;;;;5030213;28;20226;-67
2023/09/10 06:45:50;;;;;;;10.63;7.43;;;22.10;99.90;;;;;;5024774;28;20231;-67
2023/09/10 06:48:21;;;;;;;10.40;7.17;;;22.20;99.90;;;;;;5024193;28;20190;-64
2023/09/10 06:50:49;;;;;;;9.87;7.23;;;22.40;99.90;;;;;;5027225;28;20230;-67
2023/09/10 06:53:17;;;;;;;10.83;7.10;;;22.50;99.90;;;;;;5018733;28;20283;-66
2023/09/10 06:55:46;;;;;;;11.00;7.57;;;22.70;99.90;;;;;;5050768;28;20585;-66
2023/09/10 06:58:17;;;;;;;8.50;7.10;;;23.00;99.90;;;;;;5020003;28;20232;-66
2023/09/10 07:00:45;;;;;;;9.90;6.83;;;23.30;99.90;;;;;;5019523;28;20666;-66
2023/09/10 07:03:14;;;;;;;10.43;6.80;;;23.50;99.90;;;;;;5019196;28;20202;-66
2023/09/10 07:05:44;;;;;;;14.20;8.47;;;23.70;99.90;;;;;;5028018;28;20585;-66
2023/09/10 07:08:12;;;;;;;15.87;8.27;;;23.80;99.90;;;;;;5025271;28;20213;-66
2023/09/10 07:10:41;;;;;;;9.37;6.93;;;23.80;99.90;;;;;;5023636;28;20224;-66
2023/09/10 07:13:09;;;;;;;16.63;6.93;;;24.00;99.90;;;;;;5022866;28;20230;-66
2023/09/10 07:15:40;;;;;;;13.77;7.43;;;24.10;99.90;;;;;;5026381;28;20229;-66
2023/09/10 07:18:09;;;;;;;8.53;6.97;;;24.30;99.90;;;;;;5023101;28;20190;-65
2023/09/10 07:20:37;;;;;;;9.70;6.87;;;24.30;99.90;;;;;;5053427;28;20269;-66
2023/09/10 07:23:07;;;;;;;10.57;7.33;;;24.40;99.90;;;;;;5023274;28;20321;-66
2023/09/10 07:25:35;;;;;;;10.33;7.37;;;24.60;99.90;;;;;;5021379;28;20238;-66
2023/09/10 07:28:04;;;;;;;12.23;7.00;;;24.50;99.90;;;;;;5023187;28;20236;-67
2023/09/10 07:30:34;;;;;;;10.30;7.33;;;24.60;99.90;;;;;;5020877;28;20304;-66
2023/09/10 07:33:02;;;;;;;10.00;7.13;;;24.60;99.90;;;;;;5022632;28;20198;-65
2023/09/10 07:35:30;;;;;;;17.73;8.10;;;24.70;99.90;;;;;;5020856;28;20190;-66
2023/09/10 07:37:58;;;;;;;13.03;7.63;;;24.90;99.90;;;;;;5024628;28;20217;-66
2023/09/10 07:40:28;;;;;;;13.00;7.27;;;25.10;99.90;;;;;;5018171;28;20218;-66
2023/09/10 07:42:58;;;;;;;17.40;7.77;;;25.30;99.90;;;;;;5014538;28;20225;-66
2023/09/10 07:45:27;;;;;;;11.87;7.47;;;25.40;99.90;;;;;;5040368;28;20619;-66
2023/09/10 07:47:56;;;;;;;13.00;7.27;;;25.30;99.90;;;;;;5027473;28;20208;-66
2023/09/10 07:50:27;;;;;;;12.37;7.03;;;25.50;99.90;;;;;;5022090;28;20230;-66
2023/09/10 07:52:56;;;;;;;13.90;7.13;;;25.50;99.90;;;;;;5023574;28;20249;-66
2023/09/10 07:55:25;;;;;;;15.50;7.50;;;25.70;99.90;;;;;;5027334;28;20213;-66
2023/09/10 07:57:54;;;;;;;19.40;7.23;;;25.90;99.90;;;;;;5024866;28;20292;-66
2023/09/10 08:00:24;;;;;;;13.70;7.03;;;26.00;99.90;;;;;;5019905;28;20218;-66
2023/09/10 08:02:53;;;;;;;23.83;7.20;;;26.10;99.90;;;;;;5024379;28;20218;-66
2023/09/10 08:05:21;;;;;;;13.60;7.20;;;26.10;99.90;;;;;;5023740;28;20296;-66
2023/09/10 08:07:49;;;;;;;8.53;6.53;;;26.30;99.90;;;;;;5019590;28;20232;-66
2023/09/10 08:10:18;;;;;;;14.70;7.32;;;26.40;99.90;;;;;;5024395;28;20265;-67
2023/09/10 08:12:46;;;;;;;11.90;6.50;;;26.50;99.90;;;;;;5024043;28;20237;-67
2023/09/10 08:15:15;;;;;;;11.23;6.30;;;26.60;99.90;;;;;;5024235;28;20203;-66
2023/09/10 08:17:44;;;;;;;16.73;6.47;;;26.80;99.90;;;;;;5024479;28;20889;-67
2023/09/10 08:20:12;;;;;;;9.83;6.30;;;27.00;99.90;;;;;;5025476;28;20777;-67
2023/09/10 08:22:41;;;;;;;9.67;6.20;;;27.10;99.90;;;;;;5020979;28;20221;-67
2023/09/10 08:25:09;;;;;;;10.75;6.13;;;27.10;99.90;;;;;;5025149;28;20718;-67
2023/09/10 08:27:37;;;;;;;9.00;6.05;;;27.20;99.90;;;;;;5028129;28;20241;-66
2023/09/10 08:30:08;;;;;;;11.98;6.13;;;27.30;99.90;;;;;;5020374;28;20518;-66
2023/09/10 08:32:38;;;;;;;11.47;6.07;;;27.40;99.90;;;;;;5054624;28;20221;-67
2023/09/10 08:35:07;;;;;;;11.80;6.07;;;27.50;99.90;;;;;;5027958;28;20222;-66
2023/09/10 08:37:36;;;;;;;11.05;5.50;;;27.70;99.90;;;;;;5018867;28;20261;-67
2023/09/10 08:40:08;;;;;;;14.18;5.68;;;27.60;99.90;;;;;;5021886;28;20221;-66
2023/09/10 08:42:43;;;;;;;7.43;5.28;;;27.60;99.90;;;;;;5017980;28;21229;-67
2023/09/10 08:45:12;;;;;;;9.52;4.88;;;27.70;99.90;;;;;;5023844;28;20555;-66
2023/09/10 08:47:44;;;;;;;7.88;5.32;;;27.60;99.90;;;;;;5019376;28;20198;-67
2023/09/10 08:50:14;;;;;;;15.52;5.82;;;27.60;99.90;;;;;;5020517;28;20308;-67
2023/09/10 08:52:44;;;;;;;12.38;5.78;;;27.80;99.90;;;;;;5021768;28;20723;-67
2023/09/10 08:55:13;;;;;;;9.40;5.63;;;27.90;99.90;;;;;;5021056;28;20227;-67
2023/09/10 08:57:44;;;;;;;10.02;5.55;;;27.90;99.90;;;;;;5025552;28;20240;-67
2023/09/10 09:00:13;;;;;;;10.77;5.65;;;27.90;99.90;;;;;;5026275;28;20657;-67
2023/09/10 09:02:45;;;;;;;7.97;5.45;;;28.10;99.90;;;;;;5023970;28;20191;-68
2023/09/10 09:05:13;;;;;;;5.90;5.07;;;28.20;99.90;;;;;;5026068;28;20228;-67
2023/09/10 09:07:45;;;;;;;8.85;5.68;;;28.20;99.90;;;;;;5027082;28;20228;-67
2023/09/10 09:10:19;;;;;;;13.32;5.88;;;28.20;99.90;;;;;;5025885;28;20251;-67
2023/09/10 09:12:49;;;;;;;11.82;5.43;;;28.10;99.90;;;;;;5025791;28;20254;-67
2023/09/10 09:15:19;;;;;;;14.38;5.72;;;28.20;99.90;;;;;;5029922;28;20287;-67
2023/09/10 09:17:50;;;;;;;14.43;5.72;;;28.20;99.90;;;;;;5028263;28;20201;-67
2023/09/10 09:20:23;;;;;;;9.38;5.60;;;28.30;99.90;;;;;;5027560;28;20225;-67
2023/09/10 09:22:57;;;;;;;12.43;5.68;;;28.50;99.90;;;;;;5039920;28;20220;-67
2023/09/10 09:25:25;;;;;;;9.98;5.63;;;28.70;99.90;;;;;;5025614;28;20245;-67
2023/09/10 09:27:57;;;;;;;12.10;5.75;;;28.70;99.90;;;;;;5025145;28;20297;-65
2023/09/10 09:30:26;;;;;;;12.82;5.80;;;28.80;99.90;;;;;;5027952;28;20230;-65
2023/09/10 09:32:57;;;;;;;17.48;5.68;;;28.80;99.90;;;;;;5057769;28;20678;-66
2023/09/10 09:35:25;;;;;;;9.02;5.57;;;28.90;99.90;;;;;;5023371;28;20222;-67
2023/09/10 09:37:54;;;;;;;11.00;5.50;;;29.10;99.90;;;;;;5025176;28;20626;-65
2023/09/10 09:40:22;;;;;;;19.92;6.13;;;29.10;99.90;;;;;;5026452;28;20228;-65
2023/09/10 09:42:54;;;;;;;8.73;5.75;;;29.30;99.90;;;;;;5024045;28;20218;-65
2023/09/10 09:45:40;;;;;;;11.45;5.07;;;29.50;99.90;;;;;;5024277;28;20237;-65
2023/09/10 09:48:10;;;;;;;11.75;5.30;;;29.60;99.90;;;;;;5025760;28;20318;-64
2023/09/10 09:50:39;;;;;;;7.70;5.63;;;29.60;99.90;;;;;;5025021;28;20225;-65
2023/09/10 09:53:07;;;;;;;12.43;5.78;;;29.70;99.90;;;;;;5022504;28;20231;-65
2023/09/10 09:55:35;;;;;;;9.65;5.30;;;29.70;99.90;;;;;;5026090;28;20241;-65
2023/09/10 09:58:05;;;;;;;8.05;4.85;;;29.60;99.90;;;;;;5031977;28;20228;-65
2023/09/10 10:00:37;;;;;;;13.30;5.43;;;29.60;99.90;;;;;;5040879;28;20227;-64
2023/09/10 10:03:07;;;;;;;14.77;5.65;;;30.00;99.90;;;;;;5021983;28;20203;-63
2023/09/10 10:05:36;;;;;;;9.38;5.32;;;30.20;99.90;;;;;;5028536;28;20239;-64
2023/09/10 10:08:05;;;;;;;8.32;5.55;;;30.40;99.90;;;;;;5024178;28;20312;-65
2023/09/10 10:10:35;;;;;;;13.70;5.32;;;30.50;99.90;;;;;;5020038;28;20255;-65
2023/09/10 10:13:04;;;;;;;8.95;5.60;;;30.50;99.90;;;;;;5025126;28;20221;-66
2023/09/10 10:15:33;;;;;;;12.48;5.70;;;30.50;99.90;;;;;;5025414;28;20229;-66
2023/09/10 10:18:03;;;;;;;8.52;5.32;;;30.40;99.90;;;;;;5020741;28;20191;-65
2023/09/10 10:20:32;;;;;;;12.23;5.35;;;30.40;99.90;;;;;;5025290;28;20520;-66
2023/09/10 10:23:02;;;;;;;8.30;5.13;;;30.60;99.90;;;;;;5024628;28;20345;-67
2023/09/10 10:25:50;;;;;;;9.55;5.13;;;30.70;99.90;;;;;;5023389;28;20224;-66
2023/09/10 10:28:19;;;;;;;12.57;4.93;;;30.80;99.90;;;;;;5025735;28;20275;-67
2023/09/10 10:30:53;;;;;;;10.85;5.22;;;30.70;99.90;;;;;;5026569;28;20229;-66
2023/09/10 10:33:23;;;;;;;10.07;4.60;;;30.70;99.90;;;;;;5041030;28;20708;-65
2023/09/10 10:36:04;;;;;;;12.60;5.03;;;30.90;99.90;;;;;;5022450;28;20328;-65
2023/09/10 10:38:37;;;;;;;7.55;4.72;;;31.10;99.90;;;;;;5020656;28;20210;-65
2023/09/10 10:41:13;;;;;;;11.57;5.10;;;31.50;99.90;;;;;;5026928;28;20293;-65
2023/09/10 10:43:47;;;;;;;8.43;4.70;;;31.40;99.90;;;;;;5021925;28;20691;-66
2023/09/10 10:46:18;;;;;;;7.88;4.53;;;31.30;99.90;;;;;;5026111;28;20292;-66
2023/09/10 10:48:47;;;;;;;7.60;4.20;;;31.30;99.90;;;;;;5021163;28;20249;-66
2023/09/10 10:51:18;;;;;;;9.27;4.65;;;31.40;99.90;;;;;;5025117;28;20660;-65
2023/09/10 10:53:48;;;;;;;6.63;4.63;;;31.90;99.90;;;;;;5021207;28;20214;-66
2023/09/10 10:56:17;;;;;;;6.57;4.28;;;31.90;99.90;;;;;;5018586;28;20682;-66
2023/09/10 10:58:47;;;;;;;7.88;4.20;;;32.00;99.90;;;;;;5022425;28;20226;-66
2023/09/10 11:01:15;;;;;;;10.27;4.80;;;32.20;99.90;;;;;;5021389;28;20218;-66
2023/09/10 11:03:47;;;;;;;14.43;4.57;;;32.20;99.90;;;;;;5025978;28;20229;-65
2023/09/10 11:06:15;;;;;;;12.40;4.40;;;32.40;99.90;;;;;;5021899;28;20672;-65
2023/09/10 11:08:47;;;;;;;10.23;4.20;;;32.30;99.90;;;;;;5025195;28;20195;-66
2023/09/10 11:11:46;;;;;;;8.93;4.68;;;32.40;99.90;;;;;;5026594;28;20220;-66
2023/09/10 11:14:14;;;;;;;7.97;4.35;;;32.70;99.90;;;;;;5036170;28;20249;-66
2023/09/10 11:16:43;;;;;;;15.60;4.47;;;32.60;99.90;;;;;;5037071;28;20217;-66
2023/09/10 11:19:45;;;;;;;8.13;4.45;;;32.70;99.90;;;;;;5034308;28;20221;-65
2023/09/10 11:22:14;;;;;;;11.45;4.40;;;32.80;99.90;;;;;;5020487;28;20299;-66
2023/09/10 11:24:43;;;;;;;10.75;4.20;;;32.80;99.90;;;;;;5019555;28;20238;-65
2023/09/10 11:27:22;;;;;;;16.25;4.50;;;32.80;99.90;;;;;;5022092;28;20198;-65
2023/09/10 11:30:11;;;;;;;8.18;4.15;;;32.70;99.90;;;;;;5023336;28;20181;-66
2023/09/10 11:32:40;;;;;;;7.82;4.20;;;32.70;99.90;;;;;;5024529;28;20223;-66
2023/09/10 11:35:23;;;;;;;13.43;4.47;;;32.70;99.90;;;;;;5026055;28;20217;-66
2023/09/10 11:37:53;;;;;;;12.32;4.30;;;32.70;99.90;;;;;;5027933;28;20854;-66
2023/09/10 11:40:24;;;;;;;9.70;4.65;;;33.20;99.90;;;;;;5021303;28;20219;-65
2023/09/10 11:42:53;;;;;;;7.28;4.03;;;33.20;99.90;;;;;;5025000;28;20694;-65
2023/09/10 11:45:22;;;;;;;8.77;4.10;;;33.20;99.90;;;;;;5021804;28;20815;-65
2023/09/10 11:47:51;;;;;;;9.50;4.53;;;33.10;99.90;;;;;;5022939;28;20595;-65
2023/09/10 11:50:26;;;;;;;4.75;3.60;;;33.10;99.90;;;;;;5022751;28;20222;-65
2023/09/10 11:52:54;;;;;;;8.85;4.05;;;33.20;99.90;;;;;;5017251;28;20244;-67
2023/09/10 11:55:24;;;;;;;8.85;4.65;;;33.40;99.90;;;;;;5019865;28;20231;-66
2023/09/10 11:57:53;;;;;;;7.88;4.53;;;33.50;99.90;;;;;;5021362;28;20230;-66
2023/09/10 12:00:23;;;;;;;8.57;4.30;;;33.60;99.90;;;;;;5023202;28;20237;-66
2023/09/10 12:02:55;;;;;;;12.35;4.28;;;33.40;99.90;;;;;;5025135;28;20212;-67
2023/09/10 12:05:26;;;;;;;13.05;4.20;;;33.50;99.90;;;;;;5024314;28;20688;-66
2023/09/10 12:08:01;;;;;;;4.80;4.18;;;33.50;99.90;;;;;;5020184;28;20227;-66
2023/09/10 12:10:32;;;;;;;9.98;4.40;;;33.50;99.90;;;;;;5021695;28;20320;-66
2023/09/10 12:13:03;;;;;;;6.35;4.57;;;33.60;99.90;;;;;;5022746;28;20236;-66
2023/09/10 12:15:35;;;;;;;9.70;4.75;;;33.70;99.90;;;;;;5024566;28;20228;-66
2023/09/10 12:18:05;;;;;;;8.68;4.30;;;33.80;99.90;;;;;;5021066;28;20188;-66
2023/09/10 12:20:36;;;;;;;8.13;4.25;;;34.10;99.90;;;;;;5049916;28;20206;-66
2023/09/10 12:23:05;;;;;;;5.70;4.38;;;34.10;99.90;;;;;;5024948;28;20221;-66
2023/09/10 12:25:35;;;;;;;8.60;4.60;;;34.00;99.90;;;;;;5020417;28;20682;-66
2023/09/10 12:28:04;;;;;;;9.02;3.85;;;34.00;99.90;;;;;;5023907;28;20214;-66
2023/09/10 12:30:33;;;;;;;8.63;4.75;;;33.80;99.90;;;;;;5026207;28;20225;-65
2023/09/10 12:33:02;;;;;;;6.38;3.95;;;33.80;99.90;;;;;;5023829;28;20201;-65
2023/09/10 12:35:31;;;;;;;9.95;4.32;;;33.80;99.90;;;;;;5028217;28;20190;-66
2023/09/10 12:38:01;;;;;;;5.93;4.10;;;33.80;99.90;;;;;;5027537;28;20773;-66
2023/09/10 12:40:30;;;;;;;8.85;4.05;;;33.90;99.90;;;;;;5022342;28;20238;-66
2023/09/10 12:43:00;;;;;;;10.48;4.15;;;33.90;99.90;;;;;;5027479;28;20303;-66
2023/09/10 12:45:29;;;;;;;9.40;4.32;;;33.90;99.90;;;;;;5025633;28;20271;-65
2023/09/10 12:47:57;;;;;;;10.00;4.30;;;33.70;99.90;;;;;;5061212;28;20190;-66